Shekhupura, Pakistan
Current Conditions -  °F | °C
As of 5:55 AM on Sunday 23 Nov 2014 (Local Time) from OPLA Reporting Station
Haze Haze  
Wind Chill: 10°   Ceiling: Unl
Heat Index: 10°   Visibility: 0.93mi
Dew Point:   Wind: 0mph
Humidity: 82%   Direction: NA
Pressure: NA   Gusts: NA
Location:  31.72°N, 73.98°E
Report Text: OPLA 230055Z 00000KT 1500 BR NSC 10/07 Q1016/A30.01 BECMG 1000
Loading
Personal Weather Stations






























Interactive Weather Map New forecast layout! Learn more

10-Day Weather Forecast

Advertisements
Track Severe Weather on mobile